createdAt,value
2019-06-01T00:01:48.682Z,13.85
2019-06-01T00:04:17.338Z,13.78
2019-06-01T00:06:46.942Z,13.76
2019-06-01T00:09:15.868Z,13.77
2019-06-01T00:11:45.533Z,13.76
2019-06-01T00:14:14.317Z,13.69
2019-06-01T00:16:44.192Z,13.64
2019-06-01T00:19:13.008Z,13.63
2019-06-01T00:21:41.519Z,13.53
2019-06-01T00:24:10.067Z,13.44
2019-06-01T00:26:38.580Z,13.45
2019-06-01T00:29:07.221Z,13.42
2019-06-01T00:31:35.970Z,13.48
2019-06-01T00:34:04.710Z,13.44
2019-06-01T00:36:33.422Z,13.39
2019-06-01T00:39:03.365Z,13.36
2019-06-01T00:41:31.873Z,13.37
2019-06-01T00:44:00.396Z,13.27
2019-06-01T00:46:29.111Z,13.24
2019-06-01T00:48:57.644Z,13.21
2019-06-01T00:51:26.166Z,13.15
2019-06-01T00:53:54.825Z,13.07
2019-06-01T00:56:23.449Z,13.02
2019-06-01T00:58:52.095Z,12.95
2019-06-01T01:01:20.740Z,12.96
2019-06-01T01:03:50.192Z,13.01
2019-06-01T01:06:18.900Z,13.06
2019-06-01T01:08:48.984Z,13.01
2019-06-01T01:11:17.821Z,12.99
2019-06-01T01:13:47.201Z,12.97
2019-06-01T01:16:15.792Z,12.92
2019-06-01T01:18:45.627Z,12.87
2019-06-01T01:21:14.258Z,12.83
2019-06-01T01:23:42.799Z,12.77
2019-06-01T01:26:11.522Z,12.81
2019-06-01T01:28:40.294Z,12.82
2019-06-01T01:31:13.825Z,12.74
2019-06-01T01:33:39.330Z,12.72
2019-06-01T01:36:07.950Z,12.68
2019-06-01T01:38:36.484Z,12.56
2019-06-01T01:41:05.007Z,12.60
2019-06-01T01:43:33.618Z,12.55
2019-06-01T01:46:03.021Z,12.65
2019-06-01T01:48:31.553Z,12.57
2019-06-01T01:51:00.058Z,12.59
2019-06-01T01:53:28.844Z,12.54
2019-06-01T01:55:57.461Z,12.56
2019-06-01T01:58:26.168Z,12.50
2019-06-01T02:00:56.404Z,12.44
2019-06-01T02:03:25.248Z,12.48
2019-06-01T02:05:54.906Z,12.59
2019-06-01T02:08:23.629Z,12.55
2019-06-01T02:10:53.316Z,12.49
2019-06-01T02:13:21.935Z,12.44
2019-06-01T02:15:52.227Z,12.48
2019-06-01T02:18:20.950Z,12.46
2019-06-01T02:20:49.477Z,12.43
2019-06-01T02:23:18.119Z,12.36
2019-06-01T02:25:46.745Z,12.30
2019-06-01T02:28:15.275Z,12.20
2019-06-01T02:30:44.124Z,12.21
2019-06-01T02:33:12.653Z,12.16
2019-06-01T02:35:41.262Z,12.18
2019-06-01T02:38:09.912Z,12.15
2019-06-01T02:40:38.660Z,12.21
2019-06-01T02:43:07.419Z,12.16
2019-06-01T02:45:36.498Z,12.19
2019-06-01T02:48:06.433Z,12.15
2019-06-01T02:50:35.355Z,12.06
2019-06-01T02:53:04.085Z,12.02
2019-06-01T02:55:32.715Z,11.97
2019-06-01T02:58:02.375Z,11.93
2019-06-01T03:01:22.104Z,11.92
2019-06-01T03:03:53.277Z,11.94
2019-06-01T03:06:22.185Z,12.02
2019-06-01T03:08:53.002Z,12.02
2019-06-01T03:11:25.247Z,11.96
2019-06-01T03:13:56.341Z,11.88
2019-06-01T03:16:28.364Z,11.99
2019-06-01T03:18:59.837Z,12.03
2019-06-01T03:21:30.011Z,12.03
2019-06-01T03:24:05.990Z,12.03
2019-06-01T03:26:41.045Z,12.04
2019-06-01T03:29:13.219Z,12.04
2019-06-01T03:31:41.932Z,12.03
2019-06-01T03:34:11.515Z,12.05
2019-06-01T03:36:40.323Z,12.08
2019-06-01T03:39:09.034Z,12.10
2019-06-01T03:41:37.786Z,12.17
2019-06-01T03:44:06.592Z,12.21
2019-06-01T03:46:35.310Z,12.20
2019-06-01T03:49:04.082Z,12.26
2019-06-01T03:51:32.697Z,12.31
2019-06-01T03:54:04.672Z,12.39
2019-06-01T03:56:31.935Z,12.47
2019-06-01T03:59:01.008Z,12.55
2019-06-01T04:01:29.682Z,12.56
2019-06-01T04:03:58.321Z,12.59
2019-06-01T04:06:26.857Z,12.63
2019-06-01T04:08:55.368Z,12.70
2019-06-01T04:11:23.945Z,12.74
2019-06-01T04:13:52.568Z,12.81
2019-06-01T04:16:21.202Z,12.92
2019-06-01T04:18:49.738Z,12.97
2019-06-01T04:21:18.370Z,13.02
2019-06-01T04:23:46.892Z,13.08
2019-06-01T04:26:15.556Z,13.16
2019-06-01T04:28:44.074Z,13.24
2019-06-01T04:31:12.882Z,13.30
2019-06-01T04:33:41.637Z,13.36
2019-06-01T04:36:10.982Z,13.50
2019-06-01T04:38:39.587Z,13.59
2019-06-01T04:41:09.661Z,13.68
2019-06-01T04:43:38.420Z,13.77
2019-06-01T04:46:08.147Z,13.92
2019-06-01T04:48:36.805Z,14.04
2019-06-01T04:51:06.588Z,14.14
2019-06-01T04:53:35.362Z,14.25
2019-06-01T04:56:04.776Z,14.40
2019-06-01T04:58:33.419Z,14.53
2019-06-01T05:01:02.045Z,14.59
2019-06-01T05:03:30.771Z,14.73
2019-06-01T05:05:59.502Z,14.74
2019-06-01T05:08:28.117Z,14.78
2019-06-01T05:10:56.694Z,14.83
2019-06-01T05:13:25.318Z,15.13
2019-06-01T05:15:53.857Z,15.07
2019-06-01T05:18:22.492Z,15.11
2019-06-01T05:20:51.025Z,15.23
2019-06-01T05:23:19.534Z,15.38
2019-06-01T05:25:48.185Z,15.52
2019-06-01T05:28:17.451Z,15.74
2019-06-01T05:30:46.338Z,15.90
2019-06-01T05:33:31.044Z,16.04
2019-06-01T05:35:45.403Z,16.16
2019-06-01T05:38:14.298Z,16.19
2019-06-01T05:40:42.971Z,16.28
2019-06-01T05:43:14.826Z,16.44
2019-06-01T05:45:42.027Z,16.58
2019-06-01T05:48:13.043Z,16.60
2019-06-01T05:50:41.109Z,16.76
2019-06-01T05:53:10.433Z,16.86
2019-06-01T05:55:39.088Z,16.92
2019-06-01T05:58:07.616Z,16.98
2019-06-01T06:00:39.100Z,17.14
2019-06-01T06:03:07.826Z,17.28
2019-06-01T06:05:36.546Z,17.40
2019-06-01T06:08:05.480Z,17.49
2019-06-01T06:10:34.224Z,17.61
2019-06-01T06:13:02.953Z,17.76
2019-06-01T06:15:31.469Z,17.92
2019-06-01T06:18:00.048Z,18.05
2019-06-01T06:20:28.558Z,18.06
2019-06-01T06:22:57.091Z,18.23
2019-06-01T06:25:28.686Z,18.44
2019-06-01T06:27:56.178Z,18.63
2019-06-01T06:30:24.799Z,18.74
2019-06-01T06:32:53.595Z,18.71
2019-06-01T06:35:22.208Z,18.79
2019-06-01T06:37:51.002Z,18.83
2019-06-01T06:40:20.206Z,18.96
2019-06-01T06:42:48.694Z,19.09
2019-06-01T06:45:18.623Z,19.28
2019-06-01T06:47:47.447Z,19.24
2019-06-01T06:50:17.494Z,19.50
2019-06-01T06:52:46.575Z,19.91
2019-06-01T06:55:15.711Z,20.32
2019-06-01T06:57:44.332Z,20.57
2019-06-01T07:00:13.248Z,20.86
2019-06-01T07:02:41.873Z,20.67
2019-06-01T07:05:10.399Z,20.61
2019-06-01T07:07:38.942Z,20.61
2019-06-01T07:10:08.532Z,20.61
2019-06-01T07:12:37.279Z,20.77
2019-06-01T07:15:06.208Z,20.39
2019-06-01T07:17:34.887Z,20.69
2019-06-01T07:20:03.888Z,20.83
2019-06-01T07:22:32.419Z,20.97
2019-06-01T07:25:01.077Z,21.13
2019-06-01T07:27:29.599Z,21.08
2019-06-01T07:29:58.233Z,21.29
2019-06-01T07:32:26.803Z,21.48
2019-06-01T07:34:55.306Z,21.48
2019-06-01T07:37:24.458Z,21.64
2019-06-01T07:39:53.079Z,21.90
2019-06-01T07:42:23.490Z,22.36
2019-06-01T07:44:52.161Z,22.16
2019-06-01T07:47:20.856Z,22.17
2019-06-01T07:49:49.341Z,21.99
2019-06-01T07:52:17.875Z,21.74
2019-06-01T07:54:46.402Z,22.20
2019-06-01T07:57:14.936Z,22.78
2019-06-01T07:59:43.549Z,23.26
2019-06-01T08:02:12.297Z,23.58
2019-06-01T08:04:53.252Z,23.31
2019-06-01T08:07:11.468Z,24.12
2019-06-01T08:09:40.100Z,24.56
2019-06-01T08:12:08.853Z,25.01
2019-06-01T08:14:37.380Z,25.13
2019-06-01T08:17:05.951Z,25.71
2019-06-01T08:19:34.564Z,25.52
2019-06-01T08:22:03.321Z,25.80
2019-06-01T08:24:32.425Z,25.48
2019-06-01T08:27:01.169Z,25.29
2019-06-01T08:29:30.770Z,25.17
2019-06-01T08:31:59.468Z,26.36
2019-06-01T08:34:29.011Z,27.33
2019-06-01T08:36:57.631Z,25.39
2019-06-01T08:39:27.373Z,25.57
2019-06-01T08:41:56.180Z,26.18
2019-06-01T08:44:25.421Z,26.52
2019-06-01T08:46:54.401Z,26.59
2019-06-01T08:49:23.892Z,26.84
2019-06-01T08:51:52.521Z,25.84
2019-06-01T08:54:21.071Z,25.57
2019-06-01T08:56:49.603Z,25.09
2019-06-01T08:59:18.332Z,26.24
2019-06-01T09:01:46.863Z,25.87
2019-06-01T09:04:15.395Z,27.10
2019-06-01T09:06:43.907Z,27.49
2019-06-01T09:09:12.654Z,27.94
2019-06-01T09:11:41.267Z,26.26
2019-06-01T09:14:09.895Z,27.23
2019-06-01T09:16:38.811Z,27.62
2019-06-01T09:19:11.043Z,28.72
2019-06-01T09:21:38.101Z,28.13
2019-06-01T09:24:06.730Z,27.56
2019-06-01T09:26:36.067Z,27.41
2019-06-01T09:29:04.881Z,27.16
2019-06-01T09:31:34.382Z,28.57
2019-06-01T09:34:03.629Z,28.11
2019-06-01T09:36:32.533Z,27.56
2019-06-01T09:39:01.144Z,27.37
2019-06-01T09:41:30.471Z,27.03
2019-06-01T09:43:59.444Z,28.29
2019-06-01T09:46:28.906Z,27.84
2019-06-01T09:48:57.580Z,27.69
2019-06-01T09:51:27.260Z,27.78
2019-06-01T09:53:56.080Z,26.91
2019-06-01T09:56:24.805Z,27.90
2019-06-01T09:58:53.347Z,28.80
2019-06-01T10:01:22.012Z,28.75
2019-06-01T10:03:50.675Z,28.44
2019-06-01T10:06:19.368Z,29.70
2019-06-01T10:08:48.010Z,29.42
2019-06-01T10:11:16.521Z,27.50
2019-06-01T10:13:45.039Z,27.21
2019-06-01T10:16:13.570Z,27.97
2019-06-01T10:18:43.145Z,29.21
2019-06-01T10:21:11.909Z,30.14
2019-06-01T10:23:40.463Z,29.48
2019-06-01T10:26:09.109Z,30.78
2019-06-01T10:28:37.910Z,31.31
2019-06-01T10:31:06.741Z,29.31
2019-06-01T10:33:35.459Z,28.85
2019-06-01T10:36:19.731Z,30.41
2019-06-01T10:38:37.300Z,30.09
2019-06-01T10:41:06.086Z,31.02
2019-06-01T10:43:35.567Z,30.48
2019-06-01T10:46:04.363Z,31.07
2019-06-01T10:48:34.416Z,30.58
2019-06-01T10:51:03.202Z,30.17
2019-06-01T10:53:32.029Z,30.05
2019-06-01T10:56:00.663Z,30.81
2019-06-01T10:58:29.400Z,30.27
2019-06-01T11:00:57.931Z,30.78
2019-06-01T11:03:26.454Z,30.69
2019-06-01T11:05:54.982Z,30.43
2019-06-01T11:08:23.551Z,30.40
2019-06-01T11:10:52.189Z,29.58
2019-06-01T11:13:20.830Z,31.08
2019-06-01T11:15:49.462Z,31.29
2019-06-01T11:18:17.991Z,31.86
2019-06-01T11:20:46.507Z,32.55
2019-06-01T11:23:15.340Z,32.76
2019-06-01T11:25:44.181Z,32.49
2019-06-01T11:28:12.723Z,32.26
2019-06-01T11:30:41.828Z,33.04
2019-06-01T11:33:10.554Z,32.94
2019-06-01T11:35:39.365Z,31.95
2019-06-01T11:38:08.083Z,32.47
2019-06-01T11:40:36.732Z,31.65
2019-06-01T11:43:05.350Z,32.35
2019-06-01T11:45:34.890Z,33.49
2019-06-01T11:48:03.779Z,33.74
2019-06-01T11:50:32.314Z,33.54
2019-06-01T11:53:00.949Z,32.08
2019-06-01T11:55:29.465Z,33.18
2019-06-01T11:57:57.974Z,33.35
2019-06-01T12:00:26.807Z,33.56
2019-06-01T12:02:55.532Z,33.58
2019-06-01T12:05:24.201Z,34.62
2019-06-01T12:07:52.749Z,33.55
2019-06-01T12:10:21.375Z,33.69
2019-06-01T12:12:50.314Z,34.38
2019-06-01T12:15:19.069Z,33.29
2019-06-01T12:17:47.580Z,34.87
2019-06-01T12:20:16.392Z,33.32
2019-06-01T12:22:45.199Z,33.97
2019-06-01T12:25:14.254Z,32.63
2019-06-01T12:27:43.604Z,31.85
2019-06-01T12:30:12.719Z,31.60
2019-06-01T12:32:41.997Z,33.69
2019-06-01T12:35:12.011Z,34.11
2019-06-01T12:38:00.139Z,34.24
2019-06-01T12:40:11.658Z,34.04
2019-06-01T12:42:41.391Z,33.97
2019-06-01T12:45:17.082Z,33.31
2019-06-01T12:47:49.559Z,33.80
2019-06-01T12:50:16.540Z,33.34
2019-06-01T12:52:46.350Z,34.83
2019-06-01T12:55:15.755Z,33.21
2019-06-01T12:57:44.932Z,34.59
2019-06-01T13:00:15.600Z,33.53
2019-06-01T13:02:46.187Z,34.32
2019-06-01T13:05:15.006Z,33.59
2019-06-01T13:07:56.151Z,33.72
2019-06-01T13:10:14.424Z,33.50
2019-06-01T13:12:43.176Z,33.95
2019-06-01T13:15:12.185Z,34.82
2019-06-01T13:17:41.231Z,34.14
2019-06-01T13:20:10.435Z,35.24
2019-06-01T13:22:39.045Z,34.68
2019-06-01T13:25:07.957Z,34.30
2019-06-01T13:27:40.073Z,33.62
2019-06-01T13:30:07.524Z,34.87
2019-06-01T13:32:36.146Z,33.45
2019-06-01T13:35:04.890Z,32.97
2019-06-01T13:37:33.419Z,33.15
2019-06-01T13:40:02.075Z,34.30
2019-06-01T13:42:30.765Z,33.59
2019-06-01T13:44:59.276Z,35.78
2019-06-01T13:47:27.781Z,34.59
2019-06-01T13:49:56.329Z,34.72
2019-06-01T13:52:24.958Z,32.32
2019-06-01T13:54:54.704Z,33.93
2019-06-01T13:57:23.435Z,33.41
2019-06-01T13:59:52.952Z,33.83
2019-06-01T14:02:21.624Z,33.95
2019-06-01T14:04:50.175Z,33.89
2019-06-01T14:07:18.686Z,34.75
2019-06-01T14:09:47.308Z,34.82
2019-06-01T14:12:16.078Z,33.37
2019-06-01T14:14:45.350Z,33.00
2019-06-01T14:17:14.192Z,32.91
2019-06-01T14:19:42.839Z,31.24
2019-06-01T14:22:11.356Z,30.54
2019-06-01T14:24:43.489Z,30.38
2019-06-01T14:27:10.328Z,29.35
2019-06-01T14:29:38.862Z,29.43
2019-06-01T14:32:07.401Z,29.83
2019-06-01T14:34:35.926Z,29.67
2019-06-01T14:37:04.641Z,28.81
2019-06-01T14:39:33.274Z,28.95
2019-06-01T14:42:02.030Z,29.03
2019-06-01T14:44:30.668Z,28.89
2019-06-01T14:47:05.465Z,28.86
2019-06-01T14:49:30.025Z,28.97
2019-06-01T14:51:58.521Z,29.00
2019-06-01T14:54:27.070Z,28.98
2019-06-01T14:56:55.940Z,28.58
2019-06-01T14:59:24.515Z,28.86
2019-06-01T15:01:54.227Z,29.24
2019-06-01T15:04:22.779Z,28.84
2019-06-01T15:06:52.335Z,28.99
2019-06-01T15:09:21.142Z,28.82
2019-06-01T15:11:50.615Z,28.80
2019-06-01T15:14:19.580Z,28.96
2019-06-01T15:16:49.530Z,29.17
2019-06-01T15:19:18.402Z,28.90
2019-06-01T15:21:46.918Z,29.02
2019-06-01T15:24:15.545Z,28.83
2019-06-01T15:26:44.194Z,28.68
2019-06-01T15:29:12.713Z,28.69
2019-06-01T15:31:41.272Z,28.88
2019-06-01T15:34:09.850Z,28.54
2019-06-01T15:36:38.690Z,28.54
2019-06-01T15:39:23.530Z,28.09
2019-06-01T15:41:38.176Z,28.36
2019-06-01T15:44:06.830Z,28.57
2019-06-01T15:46:35.520Z,28.37
2019-06-01T15:49:04.409Z,28.47
2019-06-01T15:51:32.936Z,28.21
2019-06-01T15:54:01.553Z,28.28
2019-06-01T15:56:30.192Z,28.06
2019-06-01T15:59:00.163Z,28.03
2019-06-01T16:01:29.350Z,28.04
2019-06-01T16:03:59.113Z,28.10
2019-06-01T16:06:27.981Z,28.05
2019-06-01T16:08:57.235Z,28.05
2019-06-01T16:11:26.026Z,28.03
2019-06-01T16:13:55.670Z,27.94
2019-06-01T16:16:24.354Z,27.85
2019-06-01T16:18:57.463Z,27.97
2019-06-01T16:21:23.449Z,27.84
2019-06-01T16:23:51.959Z,27.69
2019-06-01T16:26:20.498Z,27.60
2019-06-01T16:28:49.005Z,27.68
2019-06-01T16:31:17.709Z,27.67
2019-06-01T16:33:46.272Z,27.55
2019-06-01T16:36:15.012Z,27.76
2019-06-01T16:38:43.550Z,27.82
2019-06-01T16:41:12.093Z,27.83
2019-06-01T16:43:40.673Z,27.70
2019-06-01T16:46:09.471Z,27.74
2019-06-01T16:48:38.009Z,27.81
2019-06-01T16:51:06.533Z,27.73
2019-06-01T16:53:35.284Z,27.69
2019-06-01T16:56:04.298Z,27.73
2019-06-01T16:58:32.852Z,27.42
2019-06-01T17:01:02.647Z,27.33
2019-06-01T17:03:31.283Z,27.11
2019-06-01T17:06:00.571Z,27.25
2019-06-01T17:08:29.147Z,27.20
2019-06-01T17:10:58.663Z,27.39
2019-06-01T17:13:27.335Z,26.98
2019-06-01T17:15:56.872Z,26.56
2019-06-01T17:18:25.587Z,26.93
2019-06-01T17:20:54.469Z,26.77
2019-06-01T17:23:27.579Z,27.01
2019-06-01T17:25:53.699Z,27.10
2019-06-01T17:28:22.256Z,26.99
2019-06-01T17:30:50.919Z,27.15
2019-06-01T17:33:19.597Z,27.06
2019-06-01T17:35:48.228Z,26.96
2019-06-01T17:38:16.851Z,26.91
2019-06-01T17:40:45.612Z,26.85
2019-06-01T17:43:14.510Z,26.67
2019-06-01T17:45:43.249Z,26.51
2019-06-01T17:48:24.692Z,26.33
2019-06-01T17:50:42.627Z,26.28
2019-06-01T17:53:11.351Z,26.36
2019-06-01T17:55:40.391Z,26.32
2019-06-01T17:58:10.071Z,26.15
2019-06-01T18:00:39.373Z,26.08
2019-06-01T18:03:08.206Z,25.96
2019-06-01T18:05:36.950Z,25.96
2019-06-01T18:08:06.248Z,25.77
2019-06-01T18:10:50.173Z,25.55
2019-06-01T18:13:06.606Z,25.50
2019-06-01T18:15:35.176Z,25.38
2019-06-01T18:18:04.658Z,25.26
2019-06-01T18:20:33.988Z,25.12
2019-06-01T18:23:04.433Z,24.98
2019-06-01T18:25:33.846Z,24.86
2019-06-01T18:28:02.826Z,24.69
2019-06-01T18:30:31.648Z,24.67
2019-06-01T18:33:00.446Z,24.50
2019-06-01T18:35:30.287Z,24.42
2019-06-01T18:37:59.060Z,24.37
2019-06-01T18:40:28.062Z,24.40
2019-06-01T18:43:00.367Z,24.26
2019-06-01T18:45:29.391Z,24.15
2019-06-01T18:47:58.203Z,24.27
2019-06-01T18:50:27.146Z,24.05
2019-06-01T18:52:55.800Z,23.85
2019-06-01T18:55:27.498Z,23.74
2019-06-01T18:57:58.597Z,23.67
2019-06-01T19:00:27.335Z,23.58
2019-06-01T19:02:56.005Z,23.54
2019-06-01T19:05:24.720Z,23.43
2019-06-01T19:07:53.374Z,23.36
2019-06-01T19:10:21.987Z,23.23
2019-06-01T19:12:50.505Z,23.15
2019-06-01T19:15:28.890Z,23.01
2019-06-01T19:17:50.079Z,23.06
2019-06-01T19:20:18.808Z,22.92
2019-06-01T19:22:47.585Z,22.83
2019-06-01T19:25:16.992Z,22.73
2019-06-01T19:27:45.805Z,22.63
2019-06-01T19:30:30.764Z,22.44
2019-06-01T19:32:59.392Z,22.39
2019-06-01T19:35:28.748Z,22.22
2019-06-01T19:38:00.039Z,22.28
2019-06-01T19:40:32.783Z,22.28
2019-06-01T19:43:01.544Z,22.20
2019-06-01T19:45:30.184Z,22.15
2019-06-01T19:47:58.815Z,21.94
2019-06-01T19:50:27.445Z,21.84
2019-06-01T19:52:56.097Z,21.77
2019-06-01T19:55:24.605Z,21.74
2019-06-01T19:57:53.142Z,21.54
2019-06-01T20:00:22.453Z,21.35
2019-06-01T20:02:51.133Z,21.47
2019-06-01T20:05:19.666Z,21.56
2019-06-01T20:07:48.334Z,21.50
2019-06-01T20:10:16.963Z,21.50
2019-06-01T20:12:45.485Z,21.28
2019-06-01T20:15:15.495Z,21.41
2019-06-01T20:17:44.112Z,21.14
2019-06-01T20:20:14.814Z,21.02
2019-06-01T20:22:43.380Z,20.79
2019-06-01T20:25:13.260Z,20.63
2019-06-01T20:27:42.103Z,20.47
2019-06-01T20:30:11.769Z,20.39
2019-06-01T20:32:40.511Z,20.30
2019-06-01T20:35:09.769Z,20.36
2019-06-01T20:37:38.316Z,20.53
2019-06-01T20:40:07.606Z,20.53
2019-06-01T20:42:36.347Z,20.58
2019-06-01T20:45:05.552Z,20.47
2019-06-01T20:47:34.207Z,20.35
2019-06-01T20:50:05.291Z,20.25
2019-06-01T20:52:33.862Z,20.17
2019-06-01T20:55:04.024Z,20.09
2019-06-01T20:57:32.590Z,20.06
2019-06-01T21:00:01.311Z,19.98
2019-06-01T21:02:29.847Z,19.90
2019-06-01T21:04:58.371Z,19.78
2019-06-01T21:07:26.925Z,19.66
2019-06-01T21:09:55.455Z,19.57
2019-06-01T21:12:42.623Z,19.72
2019-06-01T21:14:54.661Z,19.69
2019-06-01T21:17:24.381Z,19.73
2019-06-01T21:19:52.995Z,19.73
2019-06-01T21:22:22.702Z,19.62
2019-06-01T21:24:51.533Z,19.43
2019-06-01T21:27:20.749Z,19.43
2019-06-01T21:29:49.442Z,19.36
2019-06-01T21:32:19.231Z,19.20
2019-06-01T21:34:47.942Z,19.20
2019-06-01T21:37:17.412Z,19.18
2019-06-01T21:39:46.025Z,19.13
2019-06-01T21:42:15.525Z,19.11
2019-06-01T21:44:44.250Z,19.03
2019-06-01T21:47:12.811Z,19.03
2019-06-01T21:49:41.425Z,18.99
2019-06-01T21:52:10.172Z,18.91
2019-06-01T21:54:38.696Z,18.94
2019-06-01T21:57:07.310Z,18.94
2019-06-01T21:59:36.119Z,18.86
2019-06-01T22:02:05.451Z,18.86
2019-06-01T22:04:34.203Z,18.90
2019-06-01T22:07:02.946Z,18.90
2019-06-01T22:09:31.584Z,18.78
2019-06-01T22:12:00.200Z,18.73
2019-06-01T22:14:29.157Z,18.73
2019-06-01T22:16:57.774Z,18.72
2019-06-01T22:19:26.497Z,18.67
2019-06-01T22:21:55.069Z,18.69
2019-06-01T22:24:23.930Z,18.71
2019-06-01T22:26:52.474Z,18.71
2019-06-01T22:29:22.067Z,18.67
2019-06-01T22:31:50.962Z,18.61
2019-06-01T22:34:20.647Z,18.76
2019-06-01T22:36:49.240Z,18.90
2019-06-01T22:39:19.449Z,18.74
2019-06-01T22:41:48.212Z,18.69
2019-06-01T22:44:16.762Z,18.63
2019-06-01T22:46:45.283Z,18.68
2019-06-01T22:49:13.806Z,18.60
2019-06-01T22:51:42.556Z,18.71
2019-06-01T22:54:11.079Z,18.61
2019-06-01T22:56:39.589Z,18.54
2019-06-01T22:59:08.126Z,18.50
2019-06-01T23:01:37.245Z,18.52
2019-06-01T23:04:05.785Z,18.43
2019-06-01T23:06:34.312Z,18.40
2019-06-01T23:09:06.041Z,18.35
2019-06-01T23:11:34.680Z,18.25
2019-06-01T23:14:03.656Z,18.20
2019-06-01T23:16:32.207Z,18.17
2019-06-01T23:19:00.765Z,18.08
2019-06-01T23:21:29.954Z,18.08
2019-06-01T23:23:58.642Z,18.07
2019-06-01T23:26:28.285Z,17.97
2019-06-01T23:28:56.891Z,17.93
2019-06-01T23:31:26.247Z,17.81
2019-06-01T23:33:55.051Z,17.82
2019-06-01T23:36:24.461Z,17.82
2019-06-01T23:38:53.002Z,17.83
2019-06-01T23:41:22.449Z,17.77
2019-06-01T23:43:51.183Z,17.71
2019-06-01T23:46:19.804Z,17.80
2019-06-01T23:48:48.363Z,17.72
2019-06-01T23:51:17.016Z,17.71
2019-06-01T23:53:45.541Z,18.03
2019-06-01T23:56:14.319Z,17.80
2019-06-01T23:58:42.844Z,17.66
